Pompano Beach, FL

08:40 AM EDT die 28o August, anno 2015 (GMT -0400)
Pompano Beach | | Change Station
CLOSE
Current Station
Airport
Location: Pompano Beach,
Elevation: 20 ft
Nearby Weather Stations

Elev 20 ft 26.25 °N, 80.11 °W | Updated 47 minutes ago

Serena
Serena
85 °F
Feels Like 93 °F
N
7
Ventus Variabilis Ventus from Inter Austrum et Eurum

Hodie
High -- | Low -- °F
--% Chance of Precip.
Yesterday
High -- | Low -- °F
Precip. -- in
6:58 AM 7:44 PM
Waxing Gibbous, 98% visible
Pressio 30.00 in
Visibilitas 10.0 milia passuum
Clouds Serena
Index Caloris 93 °F
Frigus in quo Ros apparet 75 °F
Umor 72%
Rainfall 0.00 in
Snow Depth Not available.
UV 1 out of 12
Pollen 2.10 out of 12
Air Quality Not available.
Flu Activity Not available.
METAR KPMP 281153Z 14006KT 10SM CLR 29/24 A3000 RMK AO2 SLP158 T02940239 10294 20278 53016
Pressio 30.00 in
Visibilitas 10.0 milia passuum
Clouds Serena
Index Caloris 93 °F
Frigus in quo Ros apparet 75 °F
Umor 72%
Rainfall 0.00 in
Snow Depth Not available.
UV 1 out of 12
Pollen 2.10 out of 12
Air Quality Not available.
Flu Activity Not available.
METAR KPMP 281153Z 14006KT 10SM CLR 29/24 A3000 RMK AO2 SLP158 T02940239 10294 20278 53016
Tropical Storm Erika remains unorganized as it travels through the northeast Caribbean Sea. Puerto Rico could receive over a foot of rain from Erika, which could help the ongoing drought but could also produce dangerous mudslides. Erika is not forecast to reach hurricane strength until Monday when it curves northward along the east coast of Florida. Follow the live blog

Nowcast | as of 8:34 am EDT on August 28, 2015

Isolated to scattered showers and a few embedded thunderstorms will be possible across most of South Florida including Lake Okeechobee and the Gulf waters through the morning.

×

10-Day Weather Forecast

×

Almanac

Astronomy

Aug. 28, 2015 Rise Set
Actual Time
Civil Twilight
Nautical Twilight
Astronomical Twilight
Moon
Length Of Visible Light
Length of Day
Tomorrow will be .
, % of the Moon is Illuminated

Today's Extremes

State Highs State Lows

Community

WunderPhotos

Upload Photos

1,850,373 photos uploaded!

WunderBlogs® & News

Nearby

Air Quality

  Air Quality AQ Index Pollutant
Not available.

Snow Depth

Station Depth Elevation

Earthquake Activity

City Distance Mag. Time & Date
Minimum magnitude displayed is 2.5.

Coastal Water Temperatures

Locus Calor

Stations

Nearby Weather Stations

Station Location Temp Frigus Venti Frigus in quo Ros apparet Umor Ventus Precip. Elev Renovata Type